Time;durP1;ratioP1;P1;durP2;ratioP2;P2;SDS_P1;SDS_P2;PMS_P1;PMS_P2;Temp;Humidity;BMP_temperature;BMP_pressure;BME280_temperature;BME280_humidity;BME280_pressure;Samples;Min_cycle;Max_cycle;Signal;HPM_P1;HPM_P2
2023/11/10 00:00:38;;;;;;;15.02;9.50;;;;;;;;;;5122863;28;20035;-70
2023/11/10 00:03:05;;;;;;;15.63;8.85;;;;;;;;;;5123044;28;20012;-72
2023/11/10 00:05:32;;;;;;;14.27;7.38;;;;;;;;;;5123469;28;20072;-72
2023/11/10 00:07:57;;;;;;;12.38;8.32;;;9.20;91.90;;;;;;5123733;28;20327;-72
2023/11/10 00:10:26;;;;;;;14.00;8.63;;;9.20;87.50;;;;;;5122789;28;20086;-72
2023/11/10 00:12:53;;;;;;;12.65;8.02;;;;;;;;;;5122469;28;20023;-71
2023/11/10 00:15:19;;;;;;;12.77;7.80;;;;;;;;;;5122432;28;20023;-70
2023/11/10 00:17:45;;;;;;;13.90;8.75;;;;;;;;;;5121112;28;20030;-70
2023/11/10 00:20:12;;;;;;;13.73;8.55;;;9.20;87.50;;;;;;5122322;28;20042;-70
2023/11/10 00:22:39;;;;;;;13.73;7.10;;;9.30;95.20;;;;;;5122238;28;20023;-70
2023/11/10 00:25:05;;;;;;;14.63;8.45;;;8.80;87.70;;;;;;5122204;28;20047;-70
2023/11/10 00:27:32;;;;;;;15.35;8.63;;;9.30;93.70;;;;;;5122245;28;20305;-73
2023/11/10 00:29:58;;;;;;;12.18;8.38;;;9.30;95.30;;;;;;5122418;28;20045;-73
2023/11/10 00:32:25;;;;;;;16.42;8.70;;;;;;;;;;5122203;28;20015;-71
2023/11/10 00:34:51;;;;;;;13.77;7.40;;;9.40;92.60;;;;;;5121986;28;20050;-70
2023/11/10 00:37:17;;;;;;;15.35;7.88;;;;;;;;;;5122038;28;20031;-70
2023/11/10 00:39:43;;;;;;;13.60;7.80;;;9.30;94.40;;;;;;5120485;28;20055;-70
2023/11/10 00:42:09;;;;;;;11.30;7.93;;;9.10;95.20;;;;;;5122120;28;20026;-70
2023/11/10 00:44:35;;;;;;;14.65;8.15;;;9.30;92.20;;;;;;5120613;28;20050;-70
2023/11/10 00:47:01;;;;;;;15.38;8.40;;;;;;;;;;5121798;28;20331;-71
2023/11/10 00:49:27;;;;;;;14.27;8.07;;;;;;;;;;5121680;28;20142;-70
2023/11/10 00:51:53;;;;;;;13.02;8.18;;;;;;;;;;5121637;28;20032;-70
2023/11/10 00:54:19;;;;;;;12.32;7.03;;;9.10;95.10;;;;;;5121628;28;20011;-71
2023/11/10 00:56:45;;;;;;;15.73;8.32;;;9.50;87.60;;;;;;5121481;28;20080;-70
2023/11/10 00:59:11;;;;;;;11.52;7.30;;;;;;;;;;5120251;28;20027;-70
2023/11/10 01:01:37;;;;;;;10.15;6.78;;;;;;;;;;5121396;28;20253;-70
2023/11/10 01:04:07;;;;;;;10.93;7.85;;;9.30;86.60;;;;;;5121509;28;20023;-71
2023/11/10 01:06:33;;;;;;;13.10;7.43;;;;;;;;;;5121713;28;20062;-72
2023/11/10 01:08:59;;;;;;;11.32;6.60;;;9.30;94.90;;;;;;5121360;28;20076;-72
2023/11/10 01:11:25;;;;;;;12.38;6.68;;;9.30;94.80;;;;;;5121318;28;20180;-72
2023/11/10 01:13:51;;;;;;;10.48;6.47;;;9.20;90.10;;;;;;5121541;28;20324;-71
2023/11/10 01:16:17;;;;;;;8.48;5.70;;;9.10;93.10;;;;;;5121076;28;20216;-72
2023/11/10 01:18:43;;;;;;;10.35;5.43;;;;;;;;;;5121381;28;20342;-72
2023/11/10 01:21:09;;;;;;;9.07;6.13;;;9.50;94.80;;;;;;5121112;28;20338;-71
2023/11/10 01:23:35;;;;;;;12.80;6.13;;;9.20;94.70;;;;;;5120622;28;20007;-81
2023/11/10 01:26:01;;;;;;;7.00;5.35;;;;;;;;;;5121912;28;20558;-75
2023/11/10 01:28:27;;;;;;;15.88;5.63;;;9.10;91.10;;;;;;5121895;28;20064;-72
2023/11/10 01:30:53;;;;;;;7.75;5.28;;;;;;;;;;5121201;28;20023;-71
2023/11/10 01:33:19;;;;;;;9.35;5.72;;;9.40;94.90;;;;;;5121363;28;20027;-71
2023/11/10 01:35:45;;;;;;;8.70;6.35;;;9.40;95.00;;;;;;5121519;28;20030;-72
2023/11/10 01:38:12;;;;;;;11.38;5.72;;;;;;;;;;5121142;28;20019;-72
2023/11/10 01:40:42;;;;;;;9.15;5.40;;;9.30;87.10;;;;;;5121184;28;20095;-72
2023/11/10 01:43:13;;;;;;;7.32;5.22;;;9.30;87.20;;;;;;5120854;28;20080;-72
2023/11/10 01:45:39;;;;;;;8.10;5.15;;;9.30;94.00;;;;;;5121176;28;20058;-71
2023/11/10 01:48:07;;;;;;;10.43;5.43;;;9.20;90.30;;;;;;5120982;28;20015;-70
2023/11/10 01:50:33;;;;;;;9.25;5.53;;;;;;;;;;5119582;28;20059;-70
2023/11/10 01:53:01;;;;;;;14.02;5.30;;;9.20;94.80;;;;;;5120627;28;20085;-71
2023/11/10 01:55:27;;;;;;;8.95;5.18;;;9.50;94.80;;;;;;5120920;28;20051;-71
2023/11/10 01:57:54;;;;;;;8.80;5.10;;;9.20;87.20;;;;;;5120636;28;20383;-70
2023/11/10 02:00:21;;;;;;;11.77;5.80;;;9.00;93.50;;;;;;5120465;28;20069;-70
2023/11/10 02:02:47;;;;;;;11.98;6.10;;;9.40;95.40;;;;;;5120612;28;20031;-70
2023/11/10 02:05:13;;;;;;;9.60;6.05;;;;;;;;;;5120751;28;20543;-70
2023/11/10 02:07:40;;;;;;;9.00;6.13;;;9.00;89.00;;;;;;5120444;28;20027;-70
2023/11/10 02:10:07;;;;;;;11.15;6.53;;;8.90;96.00;;;;;;5120556;28;20074;-70
2023/11/10 02:12:32;;;;;;;10.90;6.05;;;9.00;96.10;;;;;;5119084;28;20057;-70
2023/11/10 02:15:01;;;;;;;11.23;6.10;;;;;;;;;;5120870;28;20303;-70
2023/11/10 02:17:27;;;;;;;8.88;5.43;;;;;;;;;;5119007;28;20034;-71
2023/11/10 02:19:53;;;;;;;10.43;6.07;;;;;;;;;;5120222;28;20036;-70
2023/11/10 02:22:19;;;;;;;9.93;6.18;;;;;;;;;;5119038;28;20027;-69
2023/11/10 02:24:47;;;;;;;12.38;6.70;;;;;;;;;;5120272;28;20050;-70
2023/11/10 02:27:13;;;;;;;10.95;5.75;;;;;;;;;;5120373;28;20024;-70
2023/11/10 02:29:39;;;;;;;8.70;5.78;;;9.00;91.70;;;;;;5120329;28;20051;-70
2023/11/10 02:32:06;;;;;;;8.05;5.75;;;9.50;96.30;;;;;;5119153;28;20358;-70
2023/11/10 02:34:32;;;;;;;9.43;6.03;;;9.30;90.10;;;;;;5121727;28;20226;-70
2023/11/10 02:36:58;;;;;;;10.77;6.68;;;;;;;;;;5124294;27;20023;-70
2023/11/10 02:39:24;;;;;;;14.20;5.78;;;8.50;89.30;;;;;;5124087;28;20023;-69
2023/11/10 02:41:53;;;;;;;17.25;7.25;;;;;;;;;;5124063;28;20031;-69
2023/11/10 02:44:18;;;;;;;;;;;9.00;89.80;;;;;;5124493;28;20054;-70
2023/11/10 02:46:44;;;;;;;11.10;6.78;;;9.00;96.70;;;;;;5123842;28;20219;-69
2023/11/10 02:49:10;;;;;;;10.63;5.90;;;;;;;;;;5123983;28;20596;-69
2023/11/10 02:51:36;;;;;;;9.90;5.82;;;;;;;;;;5123793;28;20023;-69
2023/11/10 02:54:03;;;;;;;8.13;5.30;;;;;;;;;;5122641;28;20064;-70
2023/11/10 02:56:29;;;;;;;9.27;5.40;;;9.20;92.30;;;;;;5124142;28;20031;-69
2023/11/10 02:58:54;;;;;;;9.82;6.22;;;9.00;95.80;;;;;;5123792;28;20035;-70
2023/11/10 03:01:26;;;;;;;12.52;6.40;;;9.10;88.60;;;;;;5123759;28;20036;-69
2023/11/10 03:03:52;;;;;;;8.10;5.75;;;9.10;95.60;;;;;;5122427;28;20034;-70
2023/11/10 03:06:17;;;;;;;11.38;5.82;;;9.10;95.40;;;;;;5124008;28;20035;-69
2023/11/10 03:08:44;;;;;;;11.75;5.18;;;;;;;;;;5123953;27;20211;-69
2023/11/10 03:11:10;;;;;;;12.50;6.18;;;9.00;95.50;;;;;;5123760;28;20030;-69
2023/11/10 03:13:36;;;;;;;8.60;5.82;;;;;;;;;;5123755;28;20023;-70
2023/11/10 03:16:03;;;;;;;9.57;6.05;;;9.10;95.20;;;;;;5123627;28;20297;-71
2023/11/10 03:18:29;;;;;;;9.43;5.75;;;;;;;;;;5123515;28;20311;-71
2023/11/10 03:20:55;;;;;;;6.95;5.20;;;;;;;;;;5123273;28;20050;-69
2023/11/10 03:23:21;;;;;;;8.98;6.28;;;;;;;;;;5123427;28;20309;-70
2023/11/10 03:25:46;;;;;;;12.20;6.20;;;9.20;92.50;;;;;;5123336;28;20024;-72
2023/11/10 03:28:12;;;;;;;9.93;5.38;;;9.30;94.40;;;;;;5123218;28;20016;-71
2023/11/10 03:30:37;;;;;;;10.73;6.13;;;9.50;94.40;;;;;;5123242;28;20027;-72
2023/11/10 03:33:03;;;;;;;8.82;6.25;;;;;;;;;;5123116;28;20308;-70
2023/11/10 03:35:30;;;;;;;14.50;6.13;;;10.00;92.30;;;;;;5123061;28;20057;-70
2023/11/10 03:37:56;;;;;;;11.68;7.15;;;;;;;;;;5123351;28;20323;-71
2023/11/10 03:40:22;;;;;;;14.88;8.25;;;;;;;;;;5122844;28;20046;-70
2023/11/10 03:42:48;;;;;;;14.38;7.63;;;9.20;94.10;;;;;;5123159;28;20008;-69
2023/11/10 03:45:14;;;;;;;10.48;7.47;;;;;;;;;;5120953;28;20054;-70
2023/11/10 03:47:40;;;;;;;11.02;6.88;;;;;;;;;;5122883;28;20019;-71
2023/11/10 03:50:06;;;;;;;12.88;8.30;;;;;;;;;;5122565;28;20066;-72
2023/11/10 03:52:33;;;;;;;11.77;6.95;;;9.00;94.00;;;;;;5122722;28;20023;-72
2023/11/10 03:54:59;;;;;;;10.27;6.20;;;9.30;90.60;;;;;;5122838;28;20050;-73
2023/11/10 03:57:25;;;;;;;11.18;6.57;;;;;;;;;;5121601;28;20028;-72
2023/11/10 03:59:51;;;;;;;11.95;6.50;;;;;;;;;;5123010;28;20080;-72
2023/11/10 04:02:17;;;;;;;13.68;7.75;;;;;;;;;;5123090;28;20028;-72
2023/11/10 04:04:43;;;;;;;14.52;6.15;;;;;;;;;;5123011;28;20019;-73
2023/11/10 04:07:10;;;;;;;11.25;6.10;;;9.20;87.50;;;;;;5123010;28;20030;-72
2023/11/10 04:09:36;;;;;;;13.20;6.63;;;;;;;;;;5121234;28;20047;-72
2023/11/10 04:12:03;;;;;;;12.93;6.80;;;;;;;;;;5122582;28;20027;-72
2023/11/10 04:14:29;;;;;;;10.82;6.38;;;;;;;;;;5122370;28;20019;-73
2023/11/10 04:16:56;;;;;;;14.00;6.32;;;;;;;;;;5122606;28;20327;-72
2023/11/10 04:19:22;;;;;;;9.88;5.63;;;9.40;95.50;;;;;;5122416;28;20027;-69
2023/11/10 04:21:48;;;;;;;9.63;5.78;;;;;;;;;;5122040;28;20032;-71
2023/11/10 04:24:14;;;;;;;9.40;5.47;;;9.70;94.70;;;;;;5122272;28;20028;-70
2023/11/10 04:26:41;;;;;;;9.18;4.80;;;;;;;;;;5121950;28;20038;-70
2023/11/10 04:29:08;;;;;;;8.45;5.43;;;9.10;92.30;;;;;;5122245;28;20028;-69
2023/11/10 04:31:35;;;;;;;14.75;7.30;;;9.20;94.90;;;;;;5121971;28;20014;-70
2023/11/10 04:34:02;;;;;;;13.15;7.50;;;9.20;95.20;;;;;;5121963;28;20324;-69
2023/11/10 04:36:29;;;;;;;10.88;5.82;;;;;;;;;;5122173;28;20023;-69
2023/11/10 04:38:55;;;;;;;9.77;5.30;;;9.40;95.40;;;;;;5121794;28;20012;-70
2023/11/10 04:41:27;;;;;;;9.15;5.65;;;9.20;87.40;;;;;;5121606;28;20119;-69
2023/11/10 04:43:53;;;;;;;15.45;6.80;;;;;;;;;;5121696;28;20020;-69
2023/11/10 04:46:19;;;;;;;9.05;4.93;;;;;;;;;;5121727;28;20031;-69
2023/11/10 04:48:45;;;;;;;7.35;4.28;;;9.10;91.30;;;;;;5121471;28;20016;-70
2023/11/10 04:51:11;;;;;;;7.30;4.53;;;;;;;;;;5138193;27;20054;-69
2023/11/10 04:53:39;;;;;;;11.00;6.05;;;9.30;86.70;;;;;;5140807;27;20034;-69
2023/11/10 04:56:05;;;;;;;15.98;9.23;;;9.20;94.60;;;;;;5142021;27;20055;-68
2023/11/10 04:58:31;;;;;;;16.02;9.48;;;9.10;92.60;;;;;;5141359;27;20050;-69
2023/11/10 05:00:57;;;;;;;11.75;7.75;;;;;;;;;;5142002;27;20330;-69
2023/11/10 05:03:25;;;;;;;12.98;7.18;;;9.30;95.40;;;;;;5142087;27;20019;-69
2023/11/10 05:05:51;;;;;;;13.55;8.45;;;;;;;;;;5141983;27;20033;-70
2023/11/10 05:08:17;;;;;;;16.27;8.80;;;;;;;;;;5141940;27;20023;-70
2023/11/10 05:10:43;;;;;;;13.10;7.60;;;;;;;;;;5142064;27;20023;-70
2023/11/10 05:13:09;;;;;;;14.77;8.80;;;8.70;93.90;;;;;;5140622;27;20322;-70
2023/11/10 05:15:38;;;;;;;10.77;6.25;;;8.90;96.40;;;;;;5141829;27;20035;-70
2023/11/10 05:18:04;;;;;;;14.98;9.10;;;;;;;;;;5141860;27;20033;-71
2023/11/10 05:20:31;;;;;;;19.10;9.82;;;8.80;94.00;;;;;;5141862;27;20023;-72
2023/11/10 05:22:57;;;;;;;14.38;9.52;;;8.80;96.20;;;;;;5140498;27;20022;-73
2023/11/10 05:25:23;;;;;;;19.20;10.80;;;8.90;93.50;;;;;;5140415;27;20023;-69
2023/11/10 05:27:50;;;;;;;13.45;8.20;;;;;;;;;;5141223;27;20031;-69
2023/11/10 05:30:16;;;;;;;24.23;11.40;;;8.30;96.70;;;;;;5140845;27;20019;-70
2023/11/10 05:32:42;;;;;;;16.88;10.45;;;;;;;;;;5140560;27;20102;-69
2023/11/10 05:35:08;;;;;;;17.38;10.43;;;;;;;;;;5140755;27;20046;-69
2023/11/10 05:37:34;;;;;;;18.70;11.20;;;;;;;;;;5140817;27;20268;-70
2023/11/10 05:40:01;;;;;;;21.48;11.80;;;8.30;93.10;;;;;;5140674;27;20030;-69
2023/11/10 05:42:27;;;;;;;17.25;10.55;;;8.40;92.80;;;;;;5141246;27;20046;-71
2023/11/10 05:44:53;;;;;;;18.05;10.20;;;;;;;;;;5141335;27;20054;-71
2023/11/10 05:47:19;;;;;;;17.70;11.18;;;8.30;94.60;;;;;;5141415;27;20076;-70
2023/11/10 05:49:45;;;;;;;24.33;13.63;;;8.30;97.10;;;;;;5141081;27;20050;-70
2023/11/10 05:52:12;;;;;;;24.85;12.65;;;8.10;97.30;;;;;;5141513;27;20032;-73
2023/11/10 05:54:38;;;;;;;20.90;12.75;;;;;;;;;;5142423;27;20023;-73
2023/11/10 05:57:04;;;;;;;21.90;11.75;;;;;;;;;;5141601;27;20019;-73
2023/11/10 05:59:30;;;;;;;20.00;12.25;;;8.40;92.00;;;;;;5141807;27;20083;-72
2023/11/10 06:01:56;;;;;;;23.02;13.82;;;8.30;97.40;;;;;;5141772;28;20034;-74
2023/11/10 06:04:25;;;;;;;21.65;13.18;;;8.20;97.40;;;;;;5142760;27;20011;-73
2023/11/10 06:06:50;;;;;;;;;;;8.40;91.10;;;;;;5142859;27;20038;-72
2023/11/10 06:09:16;;;;;;;19.92;12.27;;;8.30;97.50;;;;;;5145255;27;19971;-74
2023/11/10 06:11:44;;;;;;;22.80;13.30;;;8.40;90.90;;;;;;5146537;27;20022;-71
2023/11/10 06:14:10;;;;;;;22.30;12.95;;;;;;;;;;5147025;27;20008;-73
2023/11/10 06:16:39;;;;;;;23.08;14.25;;;8.50;95.60;;;;;;5146254;27;20372;-73
2023/11/10 06:19:05;;;;;;;19.50;12.57;;;;;;;;;;5146103;27;20358;-72
2023/11/10 06:21:32;;;;;;;21.90;12.50;;;8.10;97.40;;;;;;5145476;27;20030;-72
2023/11/10 06:23:57;;;;;;;22.42;12.95;;;8.30;97.70;;;;;;5145663;27;20019;-72
2023/11/10 06:26:24;;;;;;;16.55;10.95;;;;;;;;;;5145800;27;20068;-75
2023/11/10 06:28:54;;;;;;;21.45;12.90;;;8.10;93.30;;;;;;5145929;27;20023;-75
2023/11/10 06:31:26;;;;;;;18.52;12.20;;;;;;;;;;5145751;27;20334;-75
2023/11/10 06:33:52;;;;;;;19.23;12.98;;;8.10;98.30;;;;;;5126031;27;20035;-72
2023/11/10 06:36:18;;;;;;;25.70;13.23;;;8.00;98.10;;;;;;5126982;27;20026;-75
2023/11/10 06:38:45;;;;;;;23.40;13.50;;;8.00;92.90;;;;;;5125142;28;20020;-75
2023/11/10 06:41:11;;;;;;;20.27;12.32;;;8.20;91.60;;;;;;5124395;28;20049;-72
2023/11/10 06:43:38;;;;;;;22.35;12.57;;;8.10;91.50;;;;;;5124059;27;20031;-72
2023/11/10 06:46:04;;;;;;;22.40;13.32;;;8.30;98.00;;;;;;5107092;27;20028;-72
2023/11/10 06:48:30;;;;;;;19.20;12.50;;;;;;;;;;5103894;28;20027;-72
2023/11/10 06:50:56;;;;;;;24.58;13.65;;;;;;;;;;5104329;28;20059;-75
2023/11/10 06:53:22;;;;;;;21.10;12.77;;;8.10;96.80;;;;;;5104660;28;20016;-73
2023/11/10 06:55:49;;;;;;;22.88;11.68;;;8.30;98.40;;;;;;5103684;28;20350;-71
2023/11/10 06:58:15;;;;;;;23.88;12.65;;;;;;;;;;5102395;28;20012;-71
2023/11/10 07:00:41;;;;;;;21.33;12.50;;;;;;;;;;5101818;28;20093;-72
2023/11/10 07:03:12;;;;;;;22.70;13.82;;;8.00;98.50;;;;;;5118262;27;20067;-71
2023/11/10 07:05:39;;;;;;;18.83;12.90;;;8.00;92.10;;;;;;5121747;28;20011;-71
2023/11/10 07:08:09;;;;;;;22.88;12.98;;;;;;;;;;5123186;28;20054;-71
2023/11/10 07:10:37;;;;;;;19.73;11.05;;;8.00;92.00;;;;;;5123727;28;20020;-70
2023/11/10 07:13:04;;;;;;;18.95;11.60;;;8.10;98.70;;;;;;5123905;28;20011;-71
2023/11/10 07:15:30;;;;;;;21.92;11.65;;;8.20;98.60;;;;;;5123955;28;20045;-70
2023/11/10 07:17:56;;;;;;;22.00;12.38;;;;;;;;;;5123527;28;20328;-71
2023/11/10 07:20:22;;;;;;;17.45;11.85;;;;;;;;;;5122594;28;20054;-71
2023/11/10 07:22:48;;;;;;;18.42;11.45;;;8.20;94.90;;;;;;5123598;28;20047;-71
2023/11/10 07:25:14;;;;;;;19.05;11.80;;;8.20;97.70;;;;;;5123599;28;20331;-71
2023/11/10 07:27:40;;;;;;;22.77;12.98;;;;;;;;;;5122894;28;20019;-71
2023/11/10 07:30:06;;;;;;;23.08;12.18;;;8.40;91.10;;;;;;5123392;28;20065;-71
2023/11/10 07:32:33;;;;;;;19.33;12.45;;;;;;;;;;5123289;28;20604;-71
2023/11/10 07:34:59;;;;;;;21.33;12.85;;;8.30;97.00;;;;;;5122166;28;20040;-71
2023/11/10 07:37:25;;;;;;;20.30;12.82;;;;;;;;;;5123236;28;20101;-71
2023/11/10 07:39:51;;;;;;;19.75;12.25;;;;;;;;;;5123020;27;20263;-70
2023/11/10 07:42:17;;;;;;;20.02;11.63;;;8.30;97.40;;;;;;5123116;28;20022;-71
2023/11/10 07:44:43;;;;;;;18.33;11.57;;;;;;;;;;5123611;28;20027;-71
2023/11/10 07:47:09;;;;;;;26.35;13.70;;;;;;;;;;5123066;28;20261;-71
2023/11/10 07:49:34;;;;;;;18.20;12.25;;;8.80;96.90;;;;;;5121437;28;20036;-71
2023/11/10 07:52:00;;;;;;;19.85;12.90;;;8.90;92.50;;;;;;5122653;28;20019;-71
2023/11/10 07:54:28;;;;;;;21.90;12.23;;;;;;;;;;5123188;28;20211;-71
2023/11/10 07:56:54;;;;;;;19.65;12.65;;;;;;;;;;5122894;28;20065;-70
2023/11/10 07:59:21;;;;;;;20.75;12.55;;;;;;;;;;5122833;28;20080;-71
2023/11/10 08:01:47;;;;;;;21.23;13.20;;;9.00;94.70;;;;;;5122608;28;20235;-71
2023/11/10 08:04:13;;;;;;;20.13;12.85;;;;;;;;;;5122709;28;20095;-70
2023/11/10 08:06:39;;;;;;;24.88;13.48;;;;;;;;;;5122699;28;20023;-71
2023/11/10 08:09:05;;;;;;;20.90;13.25;;;9.00;96.10;;;;;;5122754;28;20020;-71
2023/11/10 08:11:31;;;;;;;26.73;13.60;;;9.00;89.30;;;;;;5122691;28;20211;-71
2023/11/10 08:13:57;;;;;;;20.27;13.05;;;9.50;90.30;;;;;;5122531;28;20019;-71
2023/11/10 08:16:24;;;;;;;20.73;12.98;;;;;;;;;;5122539;28;20037;-71
2023/11/10 08:18:50;;;;;;;20.02;12.43;;;9.50;95.20;;;;;;5122580;28;20034;-73
2023/11/10 08:21:17;;;;;;;17.48;12.45;;;10.00;95.20;;;;;;5122932;27;20032;-70
2023/11/10 08:23:43;;;;;;;19.17;11.80;;;;;;;;;;5122386;27;20396;-71
2023/11/10 08:26:09;;;;;;;17.45;12.30;;;9.60;90.00;;;;;;5122387;28;20051;-71
2023/11/10 08:28:34;;;;;;;18.83;12.30;;;10.20;94.20;;;;;;5121146;28;20189;-71
2023/11/10 08:31:01;;;;;;;20.73;12.80;;;10.20;93.80;;;;;;5122539;28;20188;-74
2023/11/10 08:33:27;;;;;;;19.25;12.32;;;;;;;;;;5122202;28;20024;-73
2023/11/10 08:35:52;;;;;;;16.05;10.75;;;10.40;84.40;;;;;;5122945;28;20331;-72
2023/11/10 08:38:18;;;;;;;18.00;12.18;;;10.10;83.50;;;;;;5122311;28;20019;-68
2023/11/10 08:40:45;;;;;;;18.92;12.05;;;10.10;90.30;;;;;;5122110;28;20035;-69
2023/11/10 08:43:11;;;;;;;19.48;11.95;;;10.10;93.00;;;;;;5122397;28;20020;-69
2023/11/10 08:45:37;;;;;;;18.17;11.57;;;;;;;;;;5122182;28;20030;-69
2023/11/10 08:48:03;;;;;;;17.05;11.05;;;;;;;;;;5121836;28;20031;-69
2023/11/10 08:50:29;;;;;;;20.50;11.52;;;10.70;81.70;;;;;;5121862;28;20059;-69
2023/11/10 08:52:54;;;;;;;17.48;10.32;;;10.90;91.80;;;;;;5121866;28;20329;-69
2023/11/10 08:55:22;;;;;;;14.68;9.98;;;11.00;91.20;;;;;;5121765;28;20054;-69
2023/11/10 08:57:48;;;;;;;14.90;10.20;;;11.10;91.30;;;;;;5121753;28;20023;-69
2023/11/10 09:00:16;;;;;;;16.25;11.15;;;10.90;87.20;;;;;;5121907;28;20039;-68
2023/11/10 09:02:43;;;;;;;21.27;10.23;;;11.10;79.60;;;;;;5121753;28;20027;-70
2023/11/10 09:05:10;;;;;;;16.70;10.90;;;;;;;;;;5121707;28;20228;-70
2023/11/10 09:07:37;;;;;;;16.27;9.57;;;11.10;90.80;;;;;;5121411;28;20039;-69
2023/11/10 09:10:04;;;;;;;14.95;10.05;;;;;;;;;;5121356;28;20011;-70
2023/11/10 09:12:32;;;;;;;15.77;9.95;;;11.50;78.50;;;;;;5121421;28;20098;-70
2023/11/10 09:14:58;;;;;;;13.45;9.50;;;11.30;90.50;;;;;;5121342;28;20016;-68
2023/11/10 09:17:24;;;;;;;21.80;10.38;;;11.20;80.00;;;;;;5121474;28;20051;-70
2023/11/10 09:19:51;;;;;;;14.48;9.35;;;;;;;;;;5121136;28;20030;-70
2023/11/10 09:22:17;;;;;;;13.77;9.70;;;11.70;89.70;;;;;;5121261;28;20083;-70
2023/11/10 09:24:44;;;;;;;15.15;9.68;;;11.40;89.60;;;;;;5121755;28;20027;-71
2023/11/10 09:27:10;;;;;;;13.60;9.20;;;;;;;;;;5121299;28;20090;-68
2023/11/10 09:29:35;;;;;;;17.02;10.23;;;11.30;80.30;;;;;;5121277;28;20024;-70
2023/11/10 09:32:02;;;;;;;15.95;9.95;;;11.30;88.00;;;;;;5121070;28;20219;-68
2023/11/10 09:34:28;;;;;;;22.65;10.68;;;11.50;87.40;;;;;;5121090;28;20361;-69
2023/11/10 09:36:54;;;;;;;17.48;10.20;;;12.00;85.20;;;;;;5121070;28;20024;-69
2023/11/10 09:39:20;;;;;;;16.48;9.45;;;;;;;;;;5120837;28;20319;-68
2023/11/10 09:41:48;;;;;;;15.80;9.82;;;11.60;73.10;;;;;;5120689;28;20349;-71
2023/11/10 09:44:14;;;;;;;14.73;9.90;;;11.60;72.80;;;;;;5120358;28;20033;-71
2023/11/10 09:46:47;;;;;;;14.82;10.43;;;11.50;72.40;;;;;;5120938;28;20288;-71
2023/11/10 09:49:13;;;;;;;16.50;10.85;;;11.40;85.10;;;;;;5119986;28;20035;-72
2023/11/10 09:51:40;;;;;;;18.85;11.18;;;11.40;72.50;;;;;;5117648;28;20065;-72
2023/11/10 09:54:08;;;;;;;18.23;10.85;;;11.20;85.10;;;;;;5120809;28;20019;-72
2023/11/10 09:56:35;;;;;;;18.13;12.10;;;;;;;;;;5106199;28;20024;-71
2023/11/10 09:59:02;;;;;;;16.67;11.40;;;;;;;;;;5100603;28;20491;-71
2023/11/10 10:01:28;;;;;;;15.10;9.35;;;;;;;;;;5099318;28;20066;-70
2023/11/10 10:03:54;;;;;;;15.93;9.85;;;;;;;;;;5102220;28;20016;-71
2023/11/10 10:06:21;;;;;;;18.50;10.23;;;;;;;;;;5100351;28;20090;-71
2023/11/10 10:08:47;;;;;;;16.73;10.93;;;;;;;;;;5100678;28;20262;-71
2023/11/10 10:11:13;;;;;;;19.02;12.18;;;11.70;84.40;;;;;;5104400;28;20047;-72
2023/11/10 10:13:42;;;;;;;17.90;12.48;;;11.90;72.10;;;;;;5121040;28;20047;-71
2023/11/10 10:16:10;;;;;;;17.42;12.00;;;11.80;72.20;;;;;;5121052;28;20023;-71
2023/11/10 10:18:38;;;;;;;18.58;12.30;;;12.00;85.10;;;;;;5121204;28;20019;-71
2023/11/10 10:21:05;;;;;;;19.42;12.95;;;;;;;;;;5119665;28;20109;-72
2023/11/10 10:23:32;;;;;;;17.92;11.98;;;;;;;;;;5120786;28;20091;-73
2023/11/10 10:26:12;;;;;;;19.65;12.48;;;11.40;85.90;;;;;;5120812;28;20038;-71
2023/11/10 10:28:39;;;;;;;22.33;12.57;;;11.60;86.70;;;;;;5120704;28;20075;-72
2023/11/10 10:31:05;;;;;;;18.90;12.20;;;11.70;86.70;;;;;;5120572;28;20072;-71
2023/11/10 10:33:32;;;;;;;19.38;12.25;;;;;;;;;;5120980;28;20361;-72
2023/11/10 10:35:57;;;;;;;18.77;11.80;;;11.40;87.00;;;;;;5120338;28;20019;-71
2023/11/10 10:38:24;;;;;;;19.67;11.60;;;11.70;87.20;;;;;;5120585;28;20034;-72
2023/11/10 10:40:58;;;;;;;21.30;11.43;;;11.40;74.40;;;;;;5108393;28;20028;-72
2023/11/10 10:43:24;;;;;;;19.50;11.63;;;11.40;74.70;;;;;;5100673;28;20410;-71
2023/11/10 10:45:52;;;;;;;17.10;11.75;;;11.50;85.00;;;;;;5100026;28;20223;-72
2023/11/10 10:48:19;;;;;;;17.58;11.95;;;11.40;87.70;;;;;;5100372;28;20008;-72
2023/11/10 10:50:45;;;;;;;23.55;12.55;;;11.50;75.40;;;;;;5102910;28;20281;-72
2023/11/10 10:53:13;;;;;;;20.55;11.98;;;12.10;85.80;;;;;;5120408;28;20031;-72
2023/11/10 10:55:42;;;;;;;17.42;11.60;;;11.60;74.00;;;;;;5121891;28;20052;-71
2023/11/10 10:58:08;;;;;;;17.05;11.70;;;11.60;86.30;;;;;;5124237;28;20011;-71
2023/11/10 11:00:37;;;;;;;18.52;12.75;;;11.70;78.80;;;;;;5123912;27;20048;-72
2023/11/10 11:03:09;;;;;;;;;;;11.80;73.70;;;;;;5123473;28;20028;-72
2023/11/10 11:05:52;;;;;;;18.85;11.38;;;11.70;83.70;;;;;;5123935;28;19984;-72
2023/11/10 11:08:47;;;;;;;18.85;11.80;;;11.70;72.50;;;;;;5123840;28;20020;-72
2023/11/10 11:11:38;;;;;;;16.25;11.23;;;11.90;72.20;;;;;;5123732;28;20065;-72
2023/11/10 11:14:39;;;;;;;20.60;11.95;;;11.90;72.40;;;;;;5108864;28;20032;-72
2023/11/10 11:17:13;;;;;;;17.58;11.93;;;11.80;72.50;;;;;;5110741;28;20050;-72
2023/11/10 11:19:41;;;;;;;19.95;11.75;;;11.70;72.70;;;;;;5122199;28;20043;-72
2023/11/10 11:22:08;;;;;;;22.17;12.15;;;11.70;85.70;;;;;;5106077;28;20032;-72
2023/11/10 11:24:34;;;;;;;17.95;11.05;;;;;;;;;;5103081;28;20048;-73
2023/11/10 11:27:01;;;;;;;18.00;11.25;;;11.50;73.90;;;;;;5102098;28;20031;-72
2023/11/10 11:29:38;;;;;;;19.45;12.18;;;11.40;83.80;;;;;;5103161;28;20334;-72
2023/11/10 11:32:12;;;;;;;21.95;11.52;;;11.10;86.50;;;;;;5102798;28;20327;-72
2023/11/10 11:34:38;;;;;;;15.70;9.20;;;11.10;87.40;;;;;;5102713;28;20068;-73
2023/11/10 11:37:05;;;;;;;17.83;10.88;;;11.30;74.80;;;;;;5102153;28;20016;-74
2023/11/10 11:39:32;;;;;;;17.20;11.00;;;11.30;74.90;;;;;;5102181;28;20027;-73
2023/11/10 11:42:03;;;;;;;15.07;10.55;;;11.30;75.20;;;;;;5101272;28;20428;-72
2023/11/10 11:44:31;;;;;;;14.05;9.40;;;11.30;75.00;;;;;;5101706;28;20020;-73
2023/11/10 11:46:57;;;;;;;13.13;8.80;;;11.20;74.90;;;;;;5101205;28;20012;-72
2023/11/10 11:49:24;;;;;;;15.95;9.23;;;;;;;;;;5102095;28;20052;-71
2023/11/10 11:51:50;;;;;;;12.80;9.18;;;;;;;;;;5102856;28;20219;-73
2023/11/10 11:54:16;;;;;;;16.08;9.18;;;11.00;88.60;;;;;;5102790;28;20065;-72
2023/11/10 11:56:42;;;;;;;14.38;9.45;;;11.50;88.70;;;;;;5102623;28;20323;-72
2023/11/10 11:59:09;;;;;;;19.02;10.45;;;11.00;89.10;;;;;;5102431;28;20024;-72
2023/11/10 12:01:41;;;;;;;18.35;10.30;;;10.90;76.80;;;;;;5102353;28;20056;-72
2023/11/10 12:04:09;;;;;;;18.40;10.75;;;10.90;82.90;;;;;;5102500;28;20020;-72
2023/11/10 12:06:35;;;;;;;16.90;10.52;;;;;;;;;;5101884;28;20107;-73
2023/11/10 12:09:04;;;;;;;18.20;11.25;;;10.60;91.40;;;;;;5102290;28;20024;-72
2023/11/10 12:11:31;;;;;;;18.88;10.38;;;10.60;86.90;;;;;;5103002;28;20053;-74
2023/11/10 12:13:57;;;;;;;18.33;10.65;;;;;;;;;;5102950;28;20342;-73
2023/11/10 12:16:24;;;;;;;17.65;10.82;;;;;;;;;;5102583;28;20024;-74
2023/11/10 12:18:52;;;;;;;16.98;10.13;;;10.30;81.60;;;;;;5103405;28;20024;-73
2023/11/10 12:21:18;;;;;;;16.95;10.20;;;;;;;;;;5103603;28;20028;-73
2023/11/10 12:23:44;;;;;;;17.42;10.35;;;;;;;;;;5103481;28;20052;-73
2023/11/10 12:26:10;;;;;;;18.40;10.98;;;10.00;93.30;;;;;;5102921;28;20024;-73
2023/11/10 12:28:36;;;;;;;20.35;11.65;;;;;;;;;;5103120;28;20051;-75
2023/11/10 12:31:02;;;;;;;20.55;10.40;;;;;;;;;;5103159;28;20024;-73
2023/11/10 12:33:29;;;;;;;20.05;10.23;;;9.90;86.40;;;;;;5102633;28;20046;-73
2023/11/10 12:35:56;;;;;;;18.27;11.45;;;;;;;;;;5103294;28;20024;-73
2023/11/10 12:38:25;;;;;;;17.88;11.93;;;10.00;95.20;;;;;;5103327;28;20019;-73
2023/11/10 12:40:55;;;;;;;15.40;9.95;;;;;;;;;;5103214;28;20047;-73
2023/11/10 12:43:23;;;;;;;17.55;10.65;;;9.70;89.00;;;;;;5117656;28;20102;-73
2023/11/10 12:45:50;;;;;;;17.42;11.15;;;;;;;;;;5117833;28;20034;-73
2023/11/10 12:48:15;;;;;;;18.05;10.48;;;9.70;91.50;;;;;;5123224;28;20065;-75
2023/11/10 12:50:45;;;;;;;17.45;11.02;;;9.80;96.00;;;;;;5123669;28;20277;-73
2023/11/10 12:53:11;;;;;;;17.38;10.02;;;;;;;;;;5123173;28;20319;-72
2023/11/10 12:55:37;;;;;;;18.85;11.40;;;9.80;96.50;;;;;;5123556;28;20057;-74
2023/11/10 12:58:04;;;;;;;21.23;10.43;;;10.20;96.40;;;;;;5123371;28;20024;-74
2023/11/10 13:00:34;;;;;;;18.20;10.93;;;;;;;;;;5123240;27;20090;-73
2023/11/10 13:03:01;;;;;;;17.08;10.95;;;;;;;;;;5122716;28;20081;-72
2023/11/10 13:05:29;;;;;;;23.73;11.17;;;;;;;;;;5121073;28;20343;-73
2023/11/10 13:07:55;;;;;;;18.95;11.13;;;9.40;97.80;;;;;;5120798;28;20038;-73
2023/11/10 13:10:21;;;;;;;17.20;9.80;;;9.40;94.30;;;;;;5122229;28;20099;-72
2023/11/10 13:12:49;;;;;;;15.05;9.13;;;;;;;;;;5122079;28;20016;-73
2023/11/10 13:15:15;;;;;;;16.52;9.52;;;9.50;98.40;;;;;;5140262;27;20082;-72